createdAt,value
2023-01-17T00:02:22.477Z,98220.78
2023-01-17T00:05:08.177Z,98214.91
2023-01-17T00:07:53.938Z,98203.63
2023-01-17T00:10:26.165Z,98198.53
2023-01-17T00:12:55.815Z,98212.47
2023-01-17T00:15:25.621Z,98195.97
2023-01-17T00:17:53.629Z,98192.28
2023-01-17T00:20:48.042Z,98192.16
2023-01-17T00:23:41.098Z,98192.94
2023-01-17T00:26:18.309Z,98202.31
2023-01-17T00:28:46.901Z,98200.59
2023-01-17T00:31:16.383Z,98201.59
2023-01-17T00:33:43.506Z,98212.84
2023-01-17T00:36:11.464Z,98230.25
2023-01-17T00:38:39.629Z,98225.91
2023-01-17T00:41:11.807Z,98229.34
2023-01-17T00:43:58.102Z,98232.91
2023-01-17T00:46:43.451Z,98236.34
2023-01-17T00:49:29.971Z,98240.75
2023-01-17T00:52:16.616Z,98259.63
2023-01-17T00:55:02.035Z,98258.94
2023-01-17T00:57:47.328Z,98247.94
2023-01-17T01:00:33.220Z,98245.38
2023-01-17T01:03:19.674Z,98222.84
2023-01-17T01:06:05.130Z,98210.78
2023-01-17T01:08:50.481Z,98189.97
2023-01-17T01:11:39.324Z,98177.97
2023-01-17T01:14:26.965Z,98173.53
2023-01-17T01:17:12.627Z,98161.47
2023-01-17T01:19:58.170Z,98166.63
2023-01-17T01:22:43.485Z,98150.09
2023-01-17T01:25:29.782Z,98158.72
2023-01-17T01:28:29.310Z,98150.69
2023-01-17T01:31:21.068Z,98156.78
2023-01-17T01:33:48.497Z,98150.50
2023-01-17T01:36:16.304Z,98155.69
2023-01-17T01:38:44.028Z,98149.66
2023-01-17T01:41:12.711Z,98133.06
2023-01-17T01:43:49.494Z,98107.31
2023-01-17T01:46:35.856Z,98089.38
2023-01-17T01:49:25.639Z,98096.22
2023-01-17T01:52:01.160Z,98085.00
2023-01-17T01:54:37.525Z,98083.09
2023-01-17T01:57:09.472Z,98095.06
2023-01-17T01:59:44.859Z,98093.19
2023-01-17T02:02:13.264Z,98088.78
2023-01-17T02:04:41.156Z,98075.13
2023-01-17T02:07:14.927Z,98046.63
2023-01-17T02:09:42.906Z,98038.28
2023-01-17T02:12:11.331Z,98018.47
2023-01-17T02:14:38.073Z,98027.13
2023-01-17T02:17:21.103Z,98041.78
2023-01-17T02:20:14.871Z,98066.59
2023-01-17T02:23:20.372Z,98112.75
2023-01-17T02:26:10.607Z,98279.00
2023-01-17T02:29:15.572Z,98290.81
2023-01-17T02:31:53.708Z,98283.28
2023-01-17T02:34:36.728Z,98293.66
2023-01-17T02:37:26.624Z,98279.03
2023-01-17T02:40:05.314Z,98286.78
2023-01-17T02:42:40.603Z,98287.63
2023-01-17T02:45:09.071Z,98287.63
2023-01-17T02:47:36.829Z,98269.56
2023-01-17T02:50:15.381Z,98276.47
2023-01-17T02:53:20.497Z,98281.66
2023-01-17T02:56:08.154Z,98273.88
2023-01-17T02:58:44.444Z,98265.25
2023-01-17T03:01:37.204Z,98242.91
2023-01-17T03:04:13.023Z,98225.66
2023-01-17T03:07:03.622Z,98210.06
2023-01-17T03:09:32.948Z,98210.03
2023-01-17T03:12:00.366Z,98206.53
2023-01-17T03:14:31.391Z,98216.84
2023-01-17T03:16:58.378Z,98216.81
2023-01-17T03:19:25.216Z,98214.09
2023-01-17T03:21:52.145Z,98201.94
2023-01-17T03:24:19.133Z,98203.50
2023-01-17T03:26:48.092Z,98209.44
2023-01-17T03:29:16.877Z,98182.59
2023-01-17T03:31:44.538Z,98185.88
2023-01-17T03:34:11.503Z,98177.06
2023-01-17T03:36:39.562Z,98177.69
2023-01-17T03:39:06.549Z,98182.81
2023-01-17T03:41:36.364Z,98193.19
2023-01-17T03:44:03.281Z,98193.41
2023-01-17T03:46:31.166Z,98214.34
2023-01-17T03:48:58.036Z,98192.22
2023-01-17T03:51:25.337Z,98181.00
2023-01-17T03:53:54.270Z,98176.53
2023-01-17T03:56:21.410Z,98182.44
2023-01-17T03:58:48.309Z,98172.81
2023-01-17T04:01:17.189Z,98177.88
2023-01-17T04:03:44.182Z,98197.94
2023-01-17T04:06:12.147Z,98198.34
2023-01-17T04:08:39.091Z,98207.16
2023-01-17T04:11:05.874Z,98216.72
2023-01-17T04:13:35.452Z,98220.25
2023-01-17T04:16:02.318Z,98215.97
2023-01-17T04:18:31.041Z,98222.03
2023-01-17T04:20:58.015Z,98210.78
2023-01-17T04:23:24.970Z,98209.06
2023-01-17T04:25:51.956Z,98201.31
2023-01-17T04:28:18.733Z,98193.50
2023-01-17T04:30:45.735Z,98210.72
2023-01-17T04:33:13.462Z,98222.00
2023-01-17T04:35:41.286Z,98216.84
2023-01-17T04:38:08.171Z,98227.94
2023-01-17T04:40:35.352Z,98233.97
2023-01-17T04:43:03.295Z,98219.19
2023-01-17T04:45:30.131Z,98226.06
2023-01-17T04:48:02.159Z,98227.00
2023-01-17T04:50:29.016Z,98233.16
2023-01-17T04:52:55.815Z,98228.06
2023-01-17T04:55:22.699Z,98233.19
2023-01-17T04:57:51.913Z,98244.41
2023-01-17T05:00:19.516Z,98243.53
2023-01-17T05:02:47.282Z,98235.78
2023-01-17T05:05:14.575Z,98234.84
2023-01-17T05:07:41.447Z,98237.38
2023-01-17T05:10:09.194Z,98230.50
2023-01-17T05:12:35.999Z,98226.28
2023-01-17T05:15:03.194Z,98238.47
2023-01-17T05:17:30.301Z,98241.94
2023-01-17T05:19:57.268Z,98245.41
2023-01-17T05:22:24.096Z,98235.97
2023-01-17T05:24:52.031Z,98251.50
2023-01-17T05:27:19.972Z,98260.13
2023-01-17T05:29:46.967Z,98259.28
2023-01-17T05:32:14.015Z,98264.41
2023-01-17T05:34:44.129Z,98268.69
2023-01-17T05:37:11.071Z,98273.84
2023-01-17T05:39:39.867Z,98266.09
2023-01-17T05:42:06.805Z,98277.25
2023-01-17T05:44:35.586Z,98277.25
2023-01-17T05:47:03.249Z,98273.75
2023-01-17T05:49:30.149Z,98285.81
2023-01-17T05:51:58.137Z,98302.19
2023-01-17T05:54:27.786Z,98305.59
2023-01-17T05:56:57.452Z,98303.03
2023-01-17T05:59:36.496Z,98302.16
2023-01-17T06:02:05.459Z,98307.34
2023-01-17T06:04:33.669Z,98296.16
2023-01-17T06:07:01.930Z,98310.84
2023-01-17T06:09:28.833Z,98329.81
2023-01-17T06:11:57.524Z,98327.22
2023-01-17T06:14:25.344Z,98328.94
2023-01-17T06:16:53.077Z,98328.09
2023-01-17T06:19:20.804Z,98334.13
2023-01-17T06:21:48.519Z,98337.56
2023-01-17T06:24:15.389Z,98337.56
2023-01-17T06:26:46.199Z,98338.41
2023-01-17T06:29:16.605Z,98350.44
2023-01-17T06:31:44.239Z,98346.16
2023-01-17T06:34:11.527Z,98359.03
2023-01-17T06:36:39.420Z,98361.63
2023-01-17T06:39:06.284Z,98365.94
2023-01-17T06:41:33.525Z,98371.09
2023-01-17T06:44:00.429Z,98375.41
2023-01-17T06:46:28.439Z,98364.22
2023-01-17T06:48:55.424Z,98364.22
2023-01-17T06:51:23.061Z,98372.81
2023-01-17T06:53:50.010Z,98377.13
2023-01-17T06:56:17.748Z,98384.03
2023-01-17T06:58:44.664Z,98393.47
2023-01-17T07:01:13.277Z,98396.09
2023-01-17T07:03:40.330Z,98402.94
2023-01-17T07:06:09.647Z,98397.78
2023-01-17T07:08:37.646Z,98405.56
2023-01-17T07:11:08.065Z,98406.41
2023-01-17T07:13:36.588Z,98395.22
2023-01-17T07:16:06.005Z,98399.53
2023-01-17T07:18:34.427Z,98402.09
2023-01-17T07:21:01.556Z,98396.94
2023-01-17T07:23:28.468Z,98407.25
2023-01-17T07:25:59.954Z,98412.41
2023-01-17T07:28:28.340Z,98415.88
2023-01-17T07:30:56.564Z,98421.03
2023-01-17T07:33:23.570Z,98425.31
2023-01-17T07:35:50.288Z,98431.31
2023-01-17T07:38:19.690Z,98427.88
2023-01-17T07:40:46.807Z,98427.88
2023-01-17T07:43:14.611Z,98430.44
2023-01-17T07:45:46.534Z,98425.25
2023-01-17T07:48:13.575Z,98430.41
2023-01-17T07:50:41.605Z,98440.72
2023-01-17T07:53:10.028Z,98436.41
2023-01-17T07:55:37.011Z,98444.97
2023-01-17T07:58:04.704Z,98434.66
2023-01-17T08:00:32.388Z,98451.03
2023-01-17T08:03:01.575Z,98438.06
2023-01-17T08:05:30.965Z,98434.63
2023-01-17T08:08:01.344Z,98425.94
2023-01-17T08:10:28.378Z,98428.47
2023-01-17T08:12:56.096Z,98431.94
2023-01-17T08:15:23.925Z,98429.38
2023-01-17T08:17:54.405Z,98432.81
2023-01-17T08:20:21.456Z,98431.00
2023-01-17T08:22:48.163Z,98430.00
2023-01-17T08:25:15.960Z,98423.00
2023-01-17T08:27:42.660Z,98435.72
2023-01-17T08:30:10.153Z,98440.78
2023-01-17T08:32:41.075Z,98440.69
2023-01-17T08:35:09.364Z,98452.53
2023-01-17T08:37:38.053Z,98458.47
2023-01-17T08:40:06.092Z,98447.81
2023-01-17T08:42:37.498Z,98467.66
2023-01-17T08:45:05.917Z,98463.34
2023-01-17T08:47:34.506Z,98465.75
2023-01-17T08:50:02.385Z,98464.09
2023-01-17T08:52:30.291Z,98464.06
2023-01-17T08:54:57.349Z,98471.88
2023-01-17T08:57:24.324Z,98472.53
2023-01-17T08:59:55.403Z,98467.97
2023-01-17T09:02:24.236Z,98469.28
2023-01-17T09:04:51.736Z,98474.34
2023-01-17T09:07:20.841Z,98469.03
2023-01-17T09:09:47.734Z,98472.50
2023-01-17T09:12:14.699Z,98489.09
2023-01-17T09:14:42.394Z,98483.09
2023-01-17T09:17:10.115Z,98486.41
2023-01-17T09:19:39.835Z,98487.97
2023-01-17T09:22:07.519Z,98498.84
2023-01-17T09:24:35.084Z,98499.44
2023-01-17T09:27:04.125Z,98494.34
2023-01-17T09:29:31.883Z,98487.38
2023-01-17T09:32:01.165Z,98496.94
2023-01-17T09:34:28.214Z,98497.81
2023-01-17T09:36:57.169Z,98491.84
2023-01-17T09:39:25.099Z,98499.59
2023-01-17T09:42:04.870Z,98494.44
2023-01-17T09:44:43.143Z,98501.69
2023-01-17T09:47:20.750Z,98507.81
2023-01-17T09:49:48.032Z,98496.16
2023-01-17T09:52:21.157Z,98499.66
2023-01-17T09:54:50.346Z,98490.69
2023-01-17T09:57:46.920Z,98504.50
2023-01-17T10:00:34.662Z,98502.25
2023-01-17T10:03:02.273Z,98490.00
2023-01-17T10:05:48.781Z,98486.22
2023-01-17T10:08:21.594Z,98489.94
2023-01-17T10:11:07.565Z,98488.69
2023-01-17T10:13:47.442Z,98474.50
2023-01-17T10:16:40.706Z,98469.75
2023-01-17T10:19:29.681Z,98475.47
2023-01-17T10:22:07.649Z,98465.81
2023-01-17T10:24:52.027Z,98470.16
2023-01-17T10:27:32.473Z,98467.88
2023-01-17T10:30:03.598Z,98469.50
2023-01-17T10:32:35.264Z,98467.69
2023-01-17T10:35:19.100Z,98461.84
2023-01-17T10:37:48.052Z,98458.53
2023-01-17T10:40:27.454Z,98445.75
2023-01-17T10:43:05.313Z,98440.16
2023-01-17T10:45:41.369Z,98444.78
2023-01-17T10:48:30.300Z,98446.19
2023-01-17T10:51:12.892Z,98430.22
2023-01-17T10:53:57.712Z,98429.88
2023-01-17T10:56:28.955Z,98428.78
2023-01-17T10:59:17.707Z,98432.59
2023-01-17T11:01:45.975Z,98424.47
2023-01-17T11:04:33.275Z,98429.66
2023-01-17T11:07:16.932Z,98434.59
2023-01-17T11:09:50.046Z,98432.44
2023-01-17T11:12:35.489Z,98438.69
2023-01-17T11:15:10.159Z,98434.81
2023-01-17T11:17:44.368Z,98440.06
2023-01-17T11:20:22.921Z,98443.06
2023-01-17T11:23:03.032Z,98429.44
2023-01-17T11:25:35.129Z,98426.78
2023-01-17T11:28:06.281Z,98423.34
2023-01-17T11:30:34.381Z,98411.81
2023-01-17T11:33:06.229Z,98393.44
2023-01-17T11:35:36.879Z,98380.81
2023-01-17T11:38:12.069Z,98371.59
2023-01-17T11:40:44.540Z,98366.59
2023-01-17T11:43:11.463Z,98359.69
2023-01-17T11:45:39.807Z,98355.19
2023-01-17T11:48:15.282Z,98337.53
2023-01-17T11:50:53.784Z,98334.22
2023-01-17T11:53:32.353Z,98336.81
2023-01-17T11:56:09.937Z,98325.94
2023-01-17T11:58:41.241Z,98313.09
2023-01-17T12:01:36.767Z,98316.38
2023-01-17T12:04:09.764Z,98312.97
2023-01-17T12:06:58.091Z,98322.16
2023-01-17T12:09:35.888Z,98320.38
2023-01-17T12:12:35.380Z,98321.50
2023-01-17T12:15:32.846Z,98308.22
2023-01-17T12:18:12.143Z,98294.56
2023-01-17T12:20:56.187Z,98296.97
2023-01-17T12:23:44.115Z,98287.75
2023-01-17T12:26:38.435Z,98285.88
2023-01-17T12:29:44.312Z,98271.78
2023-01-17T12:33:10.754Z,98280.22
2023-01-17T12:35:40.367Z,98277.03
2023-01-17T12:38:27.438Z,98265.25
2023-01-17T12:41:14.375Z,98260.06
2023-01-17T12:43:44.512Z,98252.63
2023-01-17T12:46:21.248Z,98258.94
2023-01-17T12:48:57.044Z,98250.28
2023-01-17T12:51:36.949Z,98241.97
2023-01-17T12:54:26.363Z,98239.81
2023-01-17T12:57:09.897Z,98230.63
2023-01-17T12:59:55.319Z,98233.94
2023-01-17T13:02:33.437Z,98220.16
2023-01-17T13:05:15.418Z,98222.47
2023-01-17T13:07:48.948Z,98218.72
2023-01-17T13:10:25.723Z,98218.81
2023-01-17T13:12:58.031Z,98213.84
2023-01-17T13:15:30.685Z,98214.75
2023-01-17T13:18:13.323Z,98214.81
2023-01-17T13:21:04.927Z,98220.91
2023-01-17T13:23:55.930Z,98216.69
2023-01-17T13:26:28.870Z,98205.31
2023-01-17T13:29:31.278Z,98200.06
2023-01-17T13:32:21.117Z,98197.59
2023-01-17T13:35:12.482Z,98193.66
2023-01-17T13:38:04.864Z,98197.91
2023-01-17T13:40:41.590Z,98189.97
2023-01-17T13:43:22.472Z,98192.47
2023-01-17T13:45:56.743Z,98188.09
2023-01-17T13:48:27.230Z,98171.63
2023-01-17T13:50:59.274Z,98163.09
2023-01-17T13:53:28.867Z,98159.50
2023-01-17T13:56:14.899Z,98147.47
2023-01-17T13:58:51.739Z,98144.47
2023-01-17T14:01:23.565Z,98141.00
2023-01-17T14:03:51.825Z,98140.63
2023-01-17T14:06:49.485Z,98131.00
2023-01-17T14:09:40.540Z,98112.75
2023-01-17T14:12:27.290Z,98115.50
2023-01-17T14:14:58.958Z,98112.84
2023-01-17T14:17:37.528Z,98105.38
2023-01-17T14:20:05.220Z,98100.66
2023-01-17T14:22:38.865Z,98088.38
2023-01-17T14:25:10.049Z,98091.22
2023-01-17T14:27:43.220Z,98087.19
2023-01-17T14:30:18.299Z,98091.53
2023-01-17T14:33:06.023Z,98090.81
2023-01-17T14:35:36.926Z,98083.22
2023-01-17T14:38:24.736Z,98078.81
2023-01-17T14:41:27.937Z,98090.16
2023-01-17T14:43:59.696Z,98075.75
2023-01-17T14:46:32.580Z,98063.84
2023-01-17T14:49:06.302Z,98055.19
2023-01-17T14:51:38.582Z,98062.66
2023-01-17T14:54:21.232Z,98058.25
2023-01-17T14:56:49.975Z,98042.28
2023-01-17T14:59:22.134Z,98033.03
2023-01-17T15:02:07.168Z,98037.06
2023-01-17T15:04:39.621Z,98027.34
2023-01-17T15:07:15.665Z,98018.50
2023-01-17T15:09:45.022Z,98010.06
2023-01-17T15:12:16.520Z,98010.88
2023-01-17T15:14:46.337Z,98013.81
2023-01-17T15:17:21.429Z,98006.09
2023-01-17T15:20:01.753Z,97999.81
2023-01-17T15:22:30.521Z,97995.59
2023-01-17T15:24:59.184Z,97986.91
2023-01-17T15:27:26.983Z,97987.03
2023-01-17T15:29:57.661Z,97991.03
2023-01-17T15:32:31.908Z,97976.34
2023-01-17T15:35:00.334Z,97960.31
2023-01-17T15:37:36.699Z,97952.50
2023-01-17T15:40:21.897Z,97964.81
2023-01-17T15:42:56.692Z,97967.03
2023-01-17T15:45:33.291Z,97968.19
2023-01-17T15:48:45.170Z,97942.94
2023-01-17T15:51:13.397Z,97909.22
2023-01-17T15:53:45.867Z,97889.75
2023-01-17T15:56:40.149Z,97861.81
2023-01-17T15:59:31.302Z,97842.41
2023-01-17T16:01:59.923Z,97850.38
2023-01-17T16:04:29.449Z,97840.22
2023-01-17T16:07:10.387Z,97844.22
2023-01-17T16:09:45.795Z,97824.06
2023-01-17T16:12:15.152Z,97809.09
2023-01-17T16:14:59.580Z,97799.88
2023-01-17T16:17:32.785Z,97792.56
2023-01-17T16:19:59.843Z,97797.97
2023-01-17T16:22:28.556Z,97781.41
2023-01-17T16:24:56.434Z,97793.38
2023-01-17T16:27:24.342Z,97775.28
2023-01-17T16:29:52.389Z,97762.28
2023-01-17T16:32:24.083Z,97759.16
2023-01-17T16:34:51.932Z,97756.06
2023-01-17T16:37:21.985Z,97751.78
2023-01-17T16:39:50.603Z,97749.41
2023-01-17T16:42:23.043Z,97752.59
2023-01-17T16:44:50.822Z,97750.00
2023-01-17T16:47:17.810Z,97755.78
2023-01-17T16:49:46.925Z,97751.66
2023-01-17T16:52:13.756Z,97737.06
2023-01-17T16:54:41.525Z,97723.13
2023-01-17T16:57:09.759Z,97722.16
2023-01-17T16:59:49.816Z,97720.50
2023-01-17T17:02:20.599Z,97717.81
2023-01-17T17:04:47.497Z,97709.38
2023-01-17T17:07:17.920Z,97710.25
2023-01-17T17:09:45.739Z,97715.31
2023-01-17T17:12:14.639Z,97701.22
2023-01-17T17:14:41.705Z,97703.00
2023-01-17T17:17:09.630Z,97697.88
2023-01-17T17:19:37.282Z,97691.72
2023-01-17T17:22:06.610Z,97686.63
2023-01-17T17:24:33.990Z,97677.53
2023-01-17T17:27:02.760Z,97670.84
2023-01-17T17:29:29.628Z,97662.00
2023-01-17T17:32:02.463Z,97665.44
2023-01-17T17:34:30.957Z,97641.25
2023-01-17T17:36:58.093Z,97634.97
2023-01-17T17:39:25.122Z,97625.53
2023-01-17T17:41:54.675Z,97614.75
2023-01-17T17:44:21.625Z,97601.84
2023-01-17T17:46:51.316Z,97602.75
2023-01-17T17:49:18.347Z,97598.09
2023-01-17T17:51:47.977Z,97588.84
2023-01-17T17:54:17.193Z,97585.69
2023-01-17T17:56:49.327Z,97563.41
2023-01-17T17:59:18.454Z,97544.63
2023-01-17T18:01:47.902Z,97557.81
2023-01-17T18:04:17.531Z,97556.94
2023-01-17T18:06:46.898Z,97563.03
2023-01-17T18:09:15.119Z,97553.34
2023-01-17T18:11:43.870Z,97552.13
2023-01-17T18:14:16.128Z,97555.69
2023-01-17T18:16:45.801Z,97554.94
2023-01-17T18:19:25.178Z,97553.31
2023-01-17T18:21:54.021Z,97533.22
2023-01-17T18:24:25.686Z,97551.78
2023-01-17T18:26:59.089Z,97541.50
2023-01-17T18:29:27.284Z,97542.97
2023-01-17T18:31:56.907Z,97543.06
2023-01-17T18:34:29.457Z,97555.03
2023-01-17T18:37:00.523Z,97545.50
2023-01-17T18:39:29.356Z,97548.09
2023-01-17T18:41:58.176Z,97542.44
2023-01-17T18:44:27.491Z,97538.81
2023-01-17T18:47:04.606Z,97534.94
2023-01-17T18:49:35.451Z,97529.03
2023-01-17T18:52:03.324Z,97533.69
2023-01-17T18:54:32.072Z,97528.66
2023-01-17T18:56:59.857Z,97534.88
2023-01-17T18:59:27.673Z,97524.94
2023-01-17T19:01:56.135Z,97531.69
2023-01-17T19:04:23.870Z,97519.63
2023-01-17T19:06:53.718Z,97523.97
2023-01-17T19:09:20.626Z,97534.28
2023-01-17T19:11:48.652Z,97514.13
2023-01-17T19:14:16.683Z,97519.19
2023-01-17T19:16:45.250Z,97506.50
2023-01-17T19:19:15.495Z,97499.91
2023-01-17T19:21:43.985Z,97508.94
2023-01-17T19:24:15.395Z,97508.19
2023-01-17T19:26:44.044Z,97502.66
2023-01-17T19:29:12.361Z,97511.91
2023-01-17T19:31:43.766Z,97509.09
2023-01-17T19:34:18.947Z,97498.47
2023-01-17T19:36:47.384Z,97499.59
2023-01-17T19:39:15.162Z,97497.72
2023-01-17T19:41:45.236Z,97492.28
2023-01-17T19:44:14.791Z,97486.38
2023-01-17T19:46:46.280Z,97480.81
2023-01-17T19:49:16.350Z,97467.16
2023-01-17T19:51:44.058Z,97471.13
2023-01-17T19:54:12.130Z,97469.75
2023-01-17T19:56:39.335Z,97462.53
2023-01-17T19:59:07.291Z,97466.25
2023-01-17T20:01:35.122Z,97456.69
2023-01-17T20:04:03.886Z,97463.09
2023-01-17T20:06:36.989Z,97459.50
2023-01-17T20:09:06.564Z,97456.03
2023-01-17T20:11:34.381Z,97454.41
2023-01-17T20:14:02.552Z,97473.47
2023-01-17T20:16:32.019Z,97457.97
2023-01-17T20:19:02.923Z,97459.28
2023-01-17T20:21:32.269Z,97455.53
2023-01-17T20:24:03.370Z,97454.72
2023-01-17T20:26:36.733Z,97459.25
2023-01-17T20:29:12.230Z,97464.56
2023-01-17T20:31:40.797Z,97458.38
2023-01-17T20:34:12.083Z,97460.09
2023-01-17T20:36:42.456Z,97477.81
2023-01-17T20:39:13.159Z,97462.84
2023-01-17T20:41:42.139Z,97476.53
2023-01-17T20:44:13.053Z,97472.50
2023-01-17T20:46:41.777Z,97495.06
2023-01-17T20:49:15.861Z,97488.22
2023-01-17T20:51:44.828Z,97506.66
2023-01-17T20:54:15.135Z,97506.22
2023-01-17T20:56:42.901Z,97507.03
2023-01-17T20:59:14.978Z,97508.91
2023-01-17T21:01:44.184Z,97528.06
2023-01-17T21:04:13.114Z,97514.31
2023-01-17T21:06:41.866Z,97510.09
2023-01-17T21:09:13.215Z,97499.25
2023-01-17T21:11:41.178Z,97415.22
2023-01-17T21:14:11.344Z,97426.56
2023-01-17T21:16:39.348Z,97373.13
2023-01-17T21:19:12.248Z,97434.72
2023-01-17T21:21:39.285Z,97456.25
2023-01-17T21:24:07.069Z,97446.69
2023-01-17T21:26:33.911Z,97477.72
2023-01-17T21:29:03.944Z,97455.91
2023-01-17T21:31:34.869Z,97469.59
2023-01-17T21:34:07.186Z,97487.66
2023-01-17T21:36:37.483Z,97483.34
2023-01-17T21:39:07.818Z,97497.69
2023-01-17T21:41:38.295Z,97492.25
2023-01-17T21:44:12.275Z,97500.72
2023-01-17T21:46:40.130Z,97495.53
2023-01-17T21:49:10.767Z,97491.06
2023-01-17T21:52:05.184Z,97508.22
2023-01-17T21:54:50.644Z,97512.56
2023-01-17T21:57:39.458Z,97535.25
2023-01-17T22:00:10.417Z,97551.75
2023-01-17T22:02:37.212Z,97548.03
2023-01-17T22:05:04.017Z,97554.03
2023-01-17T22:07:30.772Z,97569.50
2023-01-17T22:09:57.623Z,97557.38
2023-01-17T22:12:24.537Z,97567.66
2023-01-17T22:14:51.377Z,97587.84
2023-01-17T22:17:18.174Z,97579.09
2023-01-17T22:19:46.114Z,97572.41
2023-01-17T22:22:13.165Z,97596.09
2023-01-17T22:24:40.686Z,97595.19
2023-01-17T22:27:10.692Z,97594.22
2023-01-17T22:29:37.904Z,97585.13
2023-01-17T22:32:05.393Z,97601.25
2023-01-17T22:34:32.174Z,97597.53
2023-01-17T22:36:59.291Z,97608.75
2023-01-17T22:39:26.112Z,97602.44
2023-01-17T22:41:52.891Z,97604.66
2023-01-17T22:44:19.990Z,97600.03
2023-01-17T22:46:48.213Z,97608.41
2023-01-17T22:49:17.136Z,97626.31
2023-01-17T22:51:44.209Z,97624.88
2023-01-17T22:54:11.601Z,97613.16
2023-01-17T22:56:38.467Z,97608.00
2023-01-17T22:59:11.417Z,97611.44
2023-01-17T23:01:40.872Z,97620.63
2023-01-17T23:04:13.303Z,97621.88
2023-01-17T23:06:41.422Z,97623.78
2023-01-17T23:09:11.695Z,97631.38
2023-01-17T23:11:44.010Z,97622.44
2023-01-17T23:14:20.118Z,97616.84
2023-01-17T23:17:12.669Z,97620.91
2023-01-17T23:19:41.997Z,97626.84
2023-01-17T23:22:30.743Z,97633.94
2023-01-17T23:25:01.401Z,97644.50
2023-01-17T23:27:52.438Z,97658.00
2023-01-17T23:30:22.214Z,97664.16
2023-01-17T23:32:51.768Z,97666.91
2023-01-17T23:35:21.066Z,97682.13
2023-01-17T23:38:06.432Z,97677.94
2023-01-17T23:40:35.221Z,97678.59
2023-01-17T23:43:20.896Z,97678.53
2023-01-17T23:45:47.786Z,97664.53
2023-01-17T23:48:14.658Z,97666.66
2023-01-17T23:50:44.249Z,97673.72
2023-01-17T23:53:24.695Z,97688.50
2023-01-17T23:55:53.525Z,97679.72
2023-01-17T23:58:22.598Z,97694.50
